createdAt,value
2024-02-12T00:00:39.000Z,8.25
2024-02-12T00:03:46.581Z,7.92
2024-02-12T00:06:57.620Z,8.82
2024-02-12T00:10:07.172Z,8.49
2024-02-12T00:13:19.197Z,8.60
2024-02-12T00:16:26.774Z,7.53
2024-02-12T00:19:35.960Z,7.97
2024-02-12T00:22:43.775Z,7.95
2024-02-12T00:25:51.855Z,9.41
2024-02-12T00:29:01.640Z,7.93
2024-02-12T00:32:12.404Z,8.27
2024-02-12T00:35:19.908Z,7.68
2024-02-12T00:38:29.340Z,7.26
2024-02-12T00:41:36.515Z,7.66
2024-02-12T00:44:47.197Z,7.36
2024-02-12T00:47:57.828Z,7.61
2024-02-12T00:51:07.327Z,6.91
2024-02-12T00:54:18.760Z,6.68
2024-02-12T00:57:27.209Z,6.70
2024-02-12T01:00:37.215Z,6.87
2024-02-12T01:03:45.808Z,7.00
2024-02-12T01:06:53.049Z,7.27
2024-02-12T01:10:02.465Z,6.55
2024-02-12T01:13:09.794Z,6.85
2024-02-12T01:16:23.222Z,7.24
2024-02-12T01:19:33.007Z,6.38
2024-02-12T01:22:41.473Z,6.53
2024-02-12T01:25:51.889Z,6.69
2024-02-12T01:28:59.960Z,6.43
2024-02-12T01:32:11.143Z,6.89
2024-02-12T01:35:19.222Z,7.51
2024-02-12T01:38:26.462Z,7.10
2024-02-12T01:41:34.474Z,6.99
2024-02-12T01:44:42.220Z,7.38
2024-02-12T01:47:59.911Z,6.69
2024-02-12T01:51:10.931Z,6.91
2024-02-12T01:54:21.448Z,7.07
2024-02-12T01:57:28.892Z,7.43
2024-02-12T02:00:37.471Z,7.29
2024-02-12T02:03:52.505Z,7.35
2024-02-12T02:07:00.563Z,7.39
2024-02-12T02:10:10.917Z,7.71
2024-02-12T02:13:20.287Z,8.06
2024-02-12T02:16:27.487Z,8.32
2024-02-12T02:19:39.646Z,8.54
2024-02-12T02:22:48.220Z,8.13
2024-02-12T02:26:00.041Z,8.73
2024-02-12T02:29:07.401Z,8.54
2024-02-12T02:32:15.596Z,8.53
2024-02-12T02:35:22.878Z,8.23
2024-02-12T02:38:30.983Z,9.76
2024-02-12T02:41:41.837Z,9.64
2024-02-12T02:44:49.931Z,10.19
2024-02-12T02:47:58.273Z,9.76
2024-02-12T02:51:06.622Z,8.87
2024-02-12T02:54:13.838Z,8.24
2024-02-12T02:57:24.375Z,8.33
2024-02-12T03:00:31.829Z,8.07
2024-02-12T03:03:39.796Z,8.36
2024-02-12T03:06:47.401Z,8.93
2024-02-12T03:09:55.413Z,8.27
2024-02-12T03:13:06.785Z,7.59
2024-02-12T03:16:18.210Z,8.41
2024-02-12T03:19:25.508Z,8.20
2024-02-12T03:22:34.965Z,8.79
2024-02-12T03:25:42.190Z,8.11
2024-02-12T03:28:53.364Z,8.37
2024-02-12T03:32:00.726Z,8.55
2024-02-12T03:35:09.769Z,8.00
2024-02-12T03:38:17.062Z,8.21
2024-02-12T03:41:26.082Z,8.83
2024-02-12T03:44:36.147Z,9.08
2024-02-12T03:47:46.420Z,8.92
2024-02-12T03:51:06.163Z,8.83
2024-02-12T03:54:26.580Z,8.81
2024-02-12T03:57:47.604Z,8.36
2024-02-12T04:00:58.286Z,8.64
2024-02-12T04:04:05.486Z,9.09
2024-02-12T04:07:14.664Z,8.55
2024-02-12T04:10:22.093Z,8.45
2024-02-12T04:13:30.590Z,8.28
2024-02-12T04:16:40.586Z,8.33
2024-02-12T04:19:49.712Z,8.51
2024-02-12T04:22:57.005Z,8.33
2024-02-12T04:26:08.137Z,8.75
2024-02-12T04:29:16.179Z,7.93
2024-02-12T04:32:27.362Z,7.51
2024-02-12T04:35:35.419Z,7.81
2024-02-12T04:38:43.536Z,7.46
2024-02-12T04:41:52.745Z,7.86
2024-02-12T04:45:00.781Z,7.81
2024-02-12T04:48:16.093Z,8.68
2024-02-12T04:51:26.628Z,9.37
2024-02-12T04:54:35.692Z,9.06
2024-02-12T04:57:43.878Z,8.85
2024-02-12T05:00:53.338Z,9.39
2024-02-12T05:04:04.087Z,8.88
2024-02-12T05:07:12.858Z,9.73
2024-02-12T05:10:22.116Z,10.04
2024-02-12T05:13:29.897Z,10.08
2024-02-12T05:16:38.932Z,8.91
2024-02-12T05:20:01.157Z,10.13
2024-02-12T05:23:13.095Z,9.69
2024-02-12T05:26:22.528Z,10.65
2024-02-12T05:29:32.297Z,9.93
2024-02-12T05:32:41.067Z,10.37
2024-02-12T05:35:51.853Z,10.84
2024-02-12T05:38:59.094Z,12.43
2024-02-12T05:42:08.679Z,16.72
2024-02-12T05:45:16.036Z,16.70
2024-02-12T05:48:24.121Z,14.31
2024-02-12T05:51:34.434Z,13.36
2024-02-12T05:54:42.909Z,12.72
2024-02-12T05:57:50.176Z,12.11
2024-02-12T06:00:58.765Z,11.95
2024-02-12T06:04:06.133Z,12.19
2024-02-12T06:07:17.106Z,11.66
2024-02-12T06:10:24.975Z,10.85
2024-02-12T06:13:33.024Z,10.29
2024-02-12T06:16:41.125Z,10.45
2024-02-12T06:19:51.645Z,9.72
2024-02-12T06:23:01.762Z,10.39
2024-02-12T06:26:09.918Z,9.63
2024-02-12T06:29:17.821Z,10.08
2024-02-12T06:32:26.388Z,10.35
2024-02-12T06:35:33.646Z,10.21
2024-02-12T06:38:44.500Z,10.10
2024-02-12T06:41:51.717Z,10.68
2024-02-12T06:44:59.901Z,10.95
2024-02-12T06:48:08.310Z,11.13
2024-02-12T06:51:16.337Z,10.26
2024-02-12T06:54:26.183Z,10.12
2024-02-12T06:57:34.216Z,11.07
2024-02-12T07:00:41.721Z,12.43
2024-02-12T07:03:51.340Z,13.50
2024-02-12T07:06:59.058Z,14.17
2024-02-12T07:10:10.863Z,14.56
2024-02-12T07:13:18.276Z,15.35
2024-02-12T07:16:31.939Z,17.04
2024-02-12T07:19:39.460Z,16.33
2024-02-12T07:22:47.519Z,16.68
2024-02-12T07:25:57.396Z,17.44
2024-02-12T07:29:05.956Z,14.43
2024-02-12T07:32:16.444Z,15.05
2024-02-12T07:35:24.659Z,16.15
2024-02-12T07:38:31.960Z,15.55
2024-02-12T07:41:44.340Z,16.03
2024-02-12T07:44:51.590Z,18.02
2024-02-12T07:48:00.101Z,19.36
2024-02-12T07:51:08.149Z,20.08
2024-02-12T07:54:16.505Z,19.62
2024-02-12T07:57:26.440Z,19.03
2024-02-12T08:00:34.721Z,20.21
2024-02-12T08:03:42.867Z,19.03
2024-02-12T08:06:51.627Z,17.46
2024-02-12T08:10:03.956Z,16.54
2024-02-12T08:13:15.758Z,15.26
2024-02-12T08:16:23.111Z,15.58
2024-02-12T08:19:31.206Z,15.31
2024-02-12T08:22:38.475Z,16.38
2024-02-12T08:25:46.435Z,17.31
2024-02-12T08:28:56.366Z,18.40
2024-02-12T08:32:05.563Z,19.98
2024-02-12T08:35:13.443Z,19.29
2024-02-12T08:38:22.662Z,20.26
2024-02-12T08:41:30.646Z,19.90
2024-02-12T08:44:41.406Z,16.05
2024-02-12T08:47:48.903Z,16.94
2024-02-12T08:50:57.029Z,14.59
2024-02-12T08:54:04.325Z,12.44
2024-02-12T08:57:16.232Z,12.45
2024-02-12T09:00:26.453Z,13.38
2024-02-12T09:03:35.536Z,13.27
2024-02-12T09:06:43.082Z,17.12
2024-02-12T09:09:52.188Z,15.33
2024-02-12T09:13:00.969Z,18.89
2024-02-12T09:16:12.382Z,18.79
2024-02-12T09:19:19.875Z,16.83
2024-02-12T09:22:28.055Z,15.85
2024-02-12T09:25:36.206Z,13.31
2024-02-12T09:28:44.853Z,14.57
2024-02-12T09:31:54.639Z,15.25
2024-02-12T09:35:05.436Z,15.81
2024-02-12T09:38:12.852Z,16.95
2024-02-12T09:41:21.738Z,15.78
2024-02-12T09:44:33.012Z,22.71
2024-02-12T09:47:46.479Z,32.09
2024-02-12T09:50:55.089Z,33.32
2024-02-12T09:54:05.825Z,28.39
2024-02-12T09:57:14.511Z,21.57
2024-02-12T10:00:24.187Z,25.96
2024-02-12T10:03:34.167Z,36.81
2024-02-12T10:06:42.268Z,23.70
2024-02-12T10:09:49.555Z,29.83
2024-02-12T10:12:58.600Z,25.11
2024-02-12T10:16:06.071Z,19.06
2024-02-12T10:19:16.799Z,23.16
2024-02-12T10:22:26.822Z,17.34
2024-02-12T10:25:36.977Z,23.13
2024-02-12T10:28:45.511Z,28.16
2024-02-12T10:31:55.937Z,17.65
2024-02-12T10:35:09.584Z,21.18
2024-02-12T10:38:19.822Z,14.55
2024-02-12T10:41:35.061Z,13.73
2024-02-12T10:44:45.020Z,11.53
2024-02-12T10:47:52.474Z,12.23
2024-02-12T10:51:04.706Z,11.51
2024-02-12T10:54:12.891Z,10.70
2024-02-12T10:57:22.481Z,10.90
2024-02-12T11:00:29.927Z,10.79
2024-02-12T11:03:40.912Z,10.53
2024-02-12T11:06:53.200Z,11.54
2024-02-12T11:10:02.875Z,11.29
2024-02-12T11:13:11.641Z,12.05
2024-02-12T11:16:22.477Z,11.84
2024-02-12T11:19:30.318Z,11.08
2024-02-12T11:22:41.047Z,10.59
2024-02-12T11:25:54.723Z,12.73
2024-02-12T11:29:09.949Z,18.14
2024-02-12T11:32:25.824Z,10.80
2024-02-12T11:35:34.195Z,13.00
2024-02-12T11:38:54.286Z,16.96
2024-02-12T11:42:03.284Z,18.57
2024-02-12T11:45:11.267Z,17.84
2024-02-12T11:48:21.187Z,21.70
2024-02-12T11:51:28.482Z,21.08
2024-02-12T11:54:41.576Z,21.68
2024-02-12T11:57:48.908Z,15.95
2024-02-12T12:00:58.845Z,11.95
2024-02-12T12:04:06.423Z,15.29
2024-02-12T12:07:18.705Z,20.51
2024-02-12T12:10:31.064Z,17.74
2024-02-12T12:13:39.118Z,16.72
2024-02-12T12:17:27.456Z,15.15
2024-02-12T12:20:17.434Z,14.28
2024-02-12T12:23:25.124Z,14.64
2024-02-12T12:26:37.074Z,14.34
2024-02-12T12:29:45.821Z,12.67
2024-02-12T12:32:54.870Z,12.53
2024-02-12T12:36:02.712Z,16.41
2024-02-12T12:39:17.911Z,17.10
2024-02-12T12:42:27.803Z,16.31
2024-02-12T12:45:36.329Z,14.79
2024-02-12T12:48:46.035Z,14.38
2024-02-12T12:51:54.392Z,13.85
2024-02-12T12:55:01.668Z,15.31
2024-02-12T12:58:12.243Z,12.87
2024-02-12T13:01:19.442Z,14.55
2024-02-12T13:04:28.397Z,12.47
2024-02-12T13:07:36.373Z,13.78
2024-02-12T13:10:46.257Z,19.30
2024-02-12T13:13:56.288Z,17.13
2024-02-12T13:17:04.292Z,15.42
2024-02-12T13:20:22.765Z,15.71
2024-02-12T13:23:31.013Z,14.89
2024-02-12T13:26:38.316Z,16.56
2024-02-12T13:29:49.637Z,18.05
2024-02-12T13:32:57.259Z,16.33
2024-02-12T13:36:05.483Z,23.53
2024-02-12T13:39:15.595Z,32.46
2024-02-12T13:42:24.437Z,27.15
2024-02-12T13:45:34.741Z,27.07
2024-02-12T13:48:44.599Z,28.78
2024-02-12T13:51:51.898Z,23.72
2024-02-12T13:55:01.261Z,40.79
2024-02-12T13:58:08.620Z,62.27
2024-02-12T14:01:37.089Z,44.44
2024-02-12T14:04:46.435Z,26.05
2024-02-12T14:07:56.431Z,23.09
2024-02-12T14:11:04.287Z,19.57
2024-02-12T14:14:12.403Z,12.74
2024-02-12T14:17:22.337Z,15.63
2024-02-12T14:20:30.631Z,16.78
2024-02-12T14:23:38.025Z,12.57
2024-02-12T14:26:59.061Z,10.94
2024-02-12T14:30:13.468Z,28.70
2024-02-12T14:33:25.077Z,53.16
2024-02-12T14:36:33.663Z,52.59
2024-02-12T14:39:41.826Z,45.97
2024-02-12T14:42:49.446Z,43.65
2024-02-12T14:45:57.435Z,37.62
2024-02-12T14:49:07.588Z,16.61
2024-02-12T14:52:15.737Z,11.05
2024-02-12T14:55:22.984Z,12.30
2024-02-12T14:58:31.192Z,14.03
2024-02-12T15:01:42.515Z,13.39
2024-02-12T15:04:54.493Z,14.74
2024-02-12T15:08:02.152Z,10.49
2024-02-12T15:11:14.569Z,9.39
2024-02-12T15:14:23.651Z,12.39
2024-02-12T15:17:31.772Z,10.12
2024-02-12T15:20:41.572Z,11.10
2024-02-12T15:23:50.850Z,22.35
2024-02-12T15:26:58.099Z,12.58
2024-02-12T15:30:06.091Z,10.86
2024-02-12T15:33:13.401Z,19.10
2024-02-12T15:36:24.083Z,17.41
2024-02-12T15:39:31.339Z,11.71
2024-02-12T15:42:39.376Z,10.96
2024-02-12T15:45:46.782Z,11.33
2024-02-12T15:48:55.095Z,13.48
2024-02-12T15:52:06.878Z,14.69
2024-02-12T15:55:15.727Z,15.28
2024-02-12T15:58:22.876Z,12.62
2024-02-12T16:01:31.192Z,11.37
2024-02-12T16:04:44.216Z,10.19
2024-02-12T16:07:54.884Z,10.14
2024-02-12T16:11:02.312Z,10.65
2024-02-12T16:14:10.548Z,10.35
2024-02-12T16:17:19.013Z,12.08
2024-02-12T16:20:27.242Z,12.02
2024-02-12T16:23:38.254Z,12.29
2024-02-12T16:26:46.371Z,16.93
2024-02-12T16:29:53.703Z,19.00
2024-02-12T16:33:01.993Z,22.48
2024-02-12T16:36:11.816Z,20.77
2024-02-12T16:39:22.940Z,22.20
2024-02-12T16:42:30.202Z,22.57
2024-02-12T16:45:38.285Z,23.56
2024-02-12T16:48:45.706Z,26.43
2024-02-12T16:51:53.849Z,30.62
2024-02-12T16:55:06.349Z,30.56
2024-02-12T16:58:14.818Z,31.57
2024-02-12T17:01:24.956Z,25.73
2024-02-12T17:04:32.993Z,23.58
2024-02-12T17:07:49.542Z,24.68
2024-02-12T17:11:08.948Z,26.31
2024-02-12T17:14:16.220Z,27.43
2024-02-12T17:17:25.408Z,27.57
2024-02-12T17:20:36.658Z,26.42
2024-02-12T17:23:45.699Z,26.96
2024-02-12T17:26:55.958Z,27.77
2024-02-12T17:30:04.742Z,30.38
2024-02-12T17:33:12.519Z,29.82
2024-02-12T17:36:20.793Z,29.32
2024-02-12T17:39:28.211Z,25.91
2024-02-12T17:42:38.967Z,23.43
2024-02-12T17:45:46.526Z,22.38
2024-02-12T17:48:56.464Z,21.09
2024-02-12T17:52:03.736Z,20.02
2024-02-12T17:55:12.417Z,19.19
2024-02-12T17:58:22.469Z,19.72
2024-02-12T18:01:32.187Z,19.65
2024-02-12T18:04:41.597Z,23.08
2024-02-12T18:07:50.034Z,26.57
2024-02-12T18:10:57.892Z,21.87
2024-02-12T18:14:09.260Z,18.30
2024-02-12T18:17:16.868Z,17.92
2024-02-12T18:20:25.165Z,17.87
2024-02-12T18:23:32.425Z,16.63
2024-02-12T18:26:41.313Z,15.67
2024-02-12T18:29:52.270Z,16.29
2024-02-12T18:33:01.155Z,15.72
2024-02-12T18:36:09.378Z,17.06
2024-02-12T18:39:19.987Z,17.13
2024-02-12T18:42:31.613Z,17.16
2024-02-12T18:45:42.613Z,19.14
2024-02-12T18:48:55.485Z,20.42
2024-02-12T18:52:03.952Z,20.88
2024-02-12T18:55:14.304Z,22.68
2024-02-12T18:58:22.534Z,23.18
2024-02-12T19:01:32.655Z,25.57
2024-02-12T19:04:40.683Z,25.88
2024-02-12T19:07:48.438Z,25.99
2024-02-12T19:10:56.685Z,26.23
2024-02-12T19:14:04.768Z,25.27
2024-02-12T19:17:15.770Z,23.83
2024-02-12T19:20:23.291Z,25.13
2024-02-12T19:23:32.026Z,25.20
2024-02-12T19:26:39.504Z,24.02
2024-02-12T19:29:50.607Z,29.46
2024-02-12T19:33:00.660Z,36.19
2024-02-12T19:36:10.194Z,23.47
2024-02-12T19:39:17.397Z,22.82
2024-02-12T19:42:25.422Z,21.81
2024-02-12T19:45:32.832Z,20.68
2024-02-12T19:48:43.750Z,21.73
2024-02-12T19:51:50.972Z,23.51
2024-02-12T19:55:00.188Z,25.50
2024-02-12T19:58:10.646Z,28.80
2024-02-12T20:01:18.781Z,30.33
2024-02-12T20:04:28.588Z,29.03
2024-02-12T20:07:39.461Z,26.75
2024-02-12T20:10:46.751Z,26.41
2024-02-12T20:13:54.793Z,25.18
2024-02-12T20:17:01.937Z,27.03
2024-02-12T20:20:15.248Z,26.93
2024-02-12T20:23:22.560Z,27.04
2024-02-12T20:26:30.658Z,28.04
2024-02-12T20:29:42.083Z,31.48
2024-02-12T20:32:50.244Z,28.68
2024-02-12T20:36:01.166Z,26.23
2024-02-12T20:39:11.170Z,25.65
2024-02-12T20:42:18.444Z,26.00
2024-02-12T20:45:26.686Z,27.70
2024-02-12T20:48:34.292Z,33.83
2024-02-12T20:51:51.218Z,35.92
2024-02-12T20:54:58.666Z,30.96
2024-02-12T20:58:08.138Z,29.87
2024-02-12T21:01:16.417Z,28.59
2024-02-12T21:04:25.030Z,29.64
2024-02-12T21:07:37.983Z,29.72
2024-02-12T21:10:46.351Z,29.93
2024-02-12T21:13:53.658Z,31.40
2024-02-12T21:17:03.742Z,31.86
2024-02-12T21:20:17.260Z,31.86
2024-02-12T21:23:30.192Z,33.00
2024-02-12T21:26:37.662Z,31.39
2024-02-12T21:29:48.243Z,29.79
2024-02-12T21:32:56.347Z,26.72
2024-02-12T21:36:04.668Z,22.59
2024-02-12T21:39:20.148Z,18.40
2024-02-12T21:42:28.939Z,16.27
2024-02-12T21:45:36.062Z,16.38
2024-02-12T21:48:44.751Z,15.24
2024-02-12T21:51:52.767Z,14.52
2024-02-12T21:55:04.170Z,14.70
2024-02-12T21:58:11.978Z,16.93
2024-02-12T22:01:20.030Z,18.35
2024-02-12T22:04:27.276Z,19.42
2024-02-12T22:07:35.647Z,20.42
2024-02-12T22:10:45.478Z,21.24
2024-02-12T22:13:53.797Z,20.90
2024-02-12T22:17:00.960Z,21.58
2024-02-12T22:20:10.713Z,22.43
2024-02-12T22:23:18.109Z,23.47
2024-02-12T22:26:28.889Z,24.33
2024-02-12T22:29:36.138Z,25.80
2024-02-12T22:32:45.276Z,24.82
2024-02-12T22:35:54.753Z,25.09
2024-02-12T22:39:03.184Z,25.24
2024-02-12T22:42:13.351Z,24.48
2024-02-12T22:45:22.028Z,26.04
2024-02-12T22:48:29.529Z,23.96
2024-02-12T22:51:38.898Z,24.86
2024-02-12T22:54:46.170Z,24.86
2024-02-12T22:57:56.829Z,24.59
2024-02-12T23:01:04.064Z,25.99
2024-02-12T23:04:13.506Z,24.48
2024-02-12T23:07:25.161Z,24.80
2024-02-12T23:10:34.370Z,23.59
2024-02-12T23:13:44.882Z,21.34
2024-02-12T23:16:52.839Z,21.51
2024-02-12T23:20:00.161Z,20.94
2024-02-12T23:23:08.837Z,20.93
2024-02-12T23:26:16.593Z,20.47
2024-02-12T23:29:27.235Z,20.78
2024-02-12T23:32:34.677Z,20.02
2024-02-12T23:35:43.413Z,18.85
2024-02-12T23:38:52.488Z,19.18
2024-02-12T23:42:00.621Z,18.92
2024-02-12T23:45:12.234Z,18.87
2024-02-12T23:48:20.710Z,18.79
2024-02-12T23:51:28.203Z,18.70
2024-02-12T23:54:37.068Z,19.17
2024-02-12T23:57:45.002Z,20.15
